sensor_id;sensor_type;location;lat;lon;timestamp;temperature;humidity
6879;DHT22;3478;51.462;7.338;2022-12-18T00:04:20;-2.50;99.90
6879;DHT22;3478;51.462;7.338;2022-12-18T00:09:23;-2.40;99.90
6879;DHT22;3478;51.462;7.338;2022-12-18T00:14:25;-2.30;99.90
6879;DHT22;3478;51.462;7.338;2022-12-18T00:19:27;-2.20;99.90
6879;DHT22;3478;51.462;7.338;2022-12-18T00:24:30;-2.00;99.90
6879;DHT22;3478;51.462;7.338;2022-12-18T00:29:32;-1.80;99.90
6879;DHT22;3478;51.462;7.338;2022-12-18T00:34:34;-1.70;99.90
6879;DHT22;3478;51.462;7.338;2022-12-18T00:39:37;-1.70;99.90
6879;DHT22;3478;51.462;7.338;2022-12-18T00:44:39;-1.70;99.90
6879;DHT22;3478;51.462;7.338;2022-12-18T00:49:41;-1.70;99.90
6879;DHT22;3478;51.462;7.338;2022-12-18T00:54:44;-1.70;99.90
6879;DHT22;3478;51.462;7.338;2022-12-18T00:59:46;-1.60;99.90
6879;DHT22;3478;51.462;7.338;2022-12-18T01:04:48;-1.70;99.90
6879;DHT22;3478;51.462;7.338;2022-12-18T01:09:51;-1.90;99.90
6879;DHT22;3478;51.462;7.338;2022-12-18T01:14:53;-2.00;99.90
6879;DHT22;3478;51.462;7.338;2022-12-18T01:19:55;-2.00;99.90
6879;DHT22;3478;51.462;7.338;2022-12-18T01:24:58;-1.90;99.90
6879;DHT22;3478;51.462;7.338;2022-12-18T01:30:00;-1.90;99.90
6879;DHT22;3478;51.462;7.338;2022-12-18T01:35:02;-1.90;99.90
6879;DHT22;3478;51.462;7.338;2022-12-18T01:40:07;-2.00;99.90
6879;DHT22;3478;51.462;7.338;2022-12-18T01:45:24;-2.00;99.90
6879;DHT22;3478;51.462;7.338;2022-12-18T01:50:30;-2.00;99.90
6879;DHT22;3478;51.462;7.338;2022-12-18T01:55:37;-1.90;99.90
6879;DHT22;3478;51.462;7.338;2022-12-18T02:00:40;-1.90;99.90
6879;DHT22;3478;51.462;7.338;2022-12-18T02:05:46;-1.80;99.90
6879;DHT22;3478;51.462;7.338;2022-12-18T02:10:57;-1.80;99.90
6879;DHT22;3478;51.462;7.338;2022-12-18T02:16:06;-1.90;99.90
6879;DHT22;3478;51.462;7.338;2022-12-18T02:21:14;-1.80;99.90
6879;DHT22;3478;51.462;7.338;2022-12-18T02:26:26;-1.80;99.90
6879;DHT22;3478;51.462;7.338;2022-12-18T02:31:31;-1.80;99.90
6879;DHT22;3478;51.462;7.338;2022-12-18T02:36:39;-1.70;99.90
6879;DHT22;3478;51.462;7.338;2022-12-18T02:41:43;-1.60;99.90
6879;DHT22;3478;51.462;7.338;2022-12-18T02:46:48;-1.70;99.90
6879;DHT22;3478;51.462;7.338;2022-12-18T02:51:53;-1.60;99.90
6879;DHT22;3478;51.462;7.338;2022-12-18T02:57:05;-1.50;99.90
6879;DHT22;3478;51.462;7.338;2022-12-18T03:02:16;-1.40;99.90
6879;DHT22;3478;51.462;7.338;2022-12-18T03:07:25;-1.50;99.90
6879;DHT22;3478;51.462;7.338;2022-12-18T03:12:32;-1.40;99.90
6879;DHT22;3478;51.462;7.338;2022-12-18T03:17:37;-1.40;99.90
6879;DHT22;3478;51.462;7.338;2022-12-18T03:22:42;-1.40;99.90
6879;DHT22;3478;51.462;7.338;2022-12-18T03:27:48;-1.50;99.90
6879;DHT22;3478;51.462;7.338;2022-12-18T03:32:53;-1.40;99.90
6879;DHT22;3478;51.462;7.338;2022-12-18T03:37:58;-1.40;99.90
6879;DHT22;3478;51.462;7.338;2022-12-18T03:43:05;-1.40;99.90
6879;DHT22;3478;51.462;7.338;2022-12-18T03:48:17;-1.40;99.90
6879;DHT22;3478;51.462;7.338;2022-12-18T03:53:26;-1.30;99.90
6879;DHT22;3478;51.462;7.338;2022-12-18T03:58:33;-1.20;99.90
6879;DHT22;3478;51.462;7.338;2022-12-18T04:03:36;-1.00;99.90
6879;DHT22;3478;51.462;7.338;2022-12-18T04:08:39;-1.00;99.90
6879;DHT22;3478;51.462;7.338;2022-12-18T04:13:43;-1.00;99.90
6879;DHT22;3478;51.462;7.338;2022-12-18T04:18:45;-1.00;99.90
6879;DHT22;3478;51.462;7.338;2022-12-18T04:23:47;-1.00;99.90
6879;DHT22;3478;51.462;7.338;2022-12-18T04:28:50;-1.00;99.90
6879;DHT22;3478;51.462;7.338;2022-12-18T04:33:52;-0.90;99.90
6879;DHT22;3478;51.462;7.338;2022-12-18T04:38:54;-0.90;99.90
6879;DHT22;3478;51.462;7.338;2022-12-18T04:43:57;-0.90;99.90
6879;DHT22;3478;51.462;7.338;2022-12-18T04:48:59;-0.90;99.90
6879;DHT22;3478;51.462;7.338;2022-12-18T04:54:01;-1.10;99.90
6879;DHT22;3478;51.462;7.338;2022-12-18T04:59:04;-1.30;99.90
6879;DHT22;3478;51.462;7.338;2022-12-18T05:04:06;-1.40;99.90
6879;DHT22;3478;51.462;7.338;2022-12-18T05:09:08;-1.40;99.90
6879;DHT22;3478;51.462;7.338;2022-12-18T05:14:11;-1.50;99.90
6879;DHT22;3478;51.462;7.338;2022-12-18T05:19:13;-1.60;99.90
6879;DHT22;3478;51.462;7.338;2022-12-18T05:24:15;-1.70;99.90
6879;DHT22;3478;51.462;7.338;2022-12-18T05:29:18;-1.70;99.90
6879;DHT22;3478;51.462;7.338;2022-12-18T05:34:20;-1.70;99.90
6879;DHT22;3478;51.462;7.338;2022-12-18T05:39:22;-1.70;99.90
6879;DHT22;3478;51.462;7.338;2022-12-18T05:44:25;-1.70;99.90
6879;DHT22;3478;51.462;7.338;2022-12-18T05:49:27;-1.70;99.90
6879;DHT22;3478;51.462;7.338;2022-12-18T05:54:29;-1.70;99.90
6879;DHT22;3478;51.462;7.338;2022-12-18T05:59:33;-1.70;99.90
6879;DHT22;3478;51.462;7.338;2022-12-18T06:04:34;-1.60;99.90
6879;DHT22;3478;51.462;7.338;2022-12-18T06:09:36;-1.60;99.90
6879;DHT22;3478;51.462;7.338;2022-12-18T06:14:40;-1.60;99.90
6879;DHT22;3478;51.462;7.338;2022-12-18T06:19:41;-1.60;99.90
6879;DHT22;3478;51.462;7.338;2022-12-18T06:24:43;-1.60;99.90
6879;DHT22;3478;51.462;7.338;2022-12-18T06:29:46;-1.60;99.90
6879;DHT22;3478;51.462;7.338;2022-12-18T06:34:48;-1.50;99.90
6879;DHT22;3478;51.462;7.338;2022-12-18T06:39:50;-1.40;99.90
6879;DHT22;3478;51.462;7.338;2022-12-18T06:44:53;-1.50;99.90
6879;DHT22;3478;51.462;7.338;2022-12-18T06:49:55;-1.60;99.90
6879;DHT22;3478;51.462;7.338;2022-12-18T06:54:57;-1.60;99.90
6879;DHT22;3478;51.462;7.338;2022-12-18T07:00:00;-1.70;99.90
6879;DHT22;3478;51.462;7.338;2022-12-18T07:05:03;-1.80;99.90
6879;DHT22;3478;51.462;7.338;2022-12-18T07:10:06;-1.90;99.90
6879;DHT22;3478;51.462;7.338;2022-12-18T07:15:10;-2.00;99.90
6879;DHT22;3478;51.462;7.338;2022-12-18T07:20:11;-2.00;99.90
6879;DHT22;3478;51.462;7.338;2022-12-18T07:25:13;-2.10;99.90
6879;DHT22;3478;51.462;7.338;2022-12-18T07:30:17;-2.00;99.90
6879;DHT22;3478;51.462;7.338;2022-12-18T07:35:19;-2.00;99.90
6879;DHT22;3478;51.462;7.338;2022-12-18T07:40:21;-2.00;99.90
6879;DHT22;3478;51.462;7.338;2022-12-18T07:45:24;-2.10;99.90
6879;DHT22;3478;51.462;7.338;2022-12-18T07:50:26;-2.00;99.90
6879;DHT22;3478;51.462;7.338;2022-12-18T07:55:28;-1.90;99.90
6879;DHT22;3478;51.462;7.338;2022-12-18T08:00:31;-1.90;99.90
6879;DHT22;3478;51.462;7.338;2022-12-18T08:05:33;-1.80;99.90
6879;DHT22;3478;51.462;7.338;2022-12-18T08:10:34;-1.60;99.90
6879;DHT22;3478;51.462;7.338;2022-12-18T08:15:38;-1.40;99.90
6879;DHT22;3478;51.462;7.338;2022-12-18T08:20:43;-1.20;99.90
6879;DHT22;3478;51.462;7.338;2022-12-18T08:25:44;-1.00;99.90
6879;DHT22;3478;51.462;7.338;2022-12-18T08:30:51;-0.80;99.90
6879;DHT22;3478;51.462;7.338;2022-12-18T08:35:53;-0.60;99.90
6879;DHT22;3478;51.462;7.338;2022-12-18T08:40:58;-0.40;99.90
6879;DHT22;3478;51.462;7.338;2022-12-18T08:46:02;0.00;99.90
6879;DHT22;3478;51.462;7.338;2022-12-18T08:51:04;0.30;99.90
6879;DHT22;3478;51.462;7.338;2022-12-18T08:56:07;0.50;99.90
6879;DHT22;3478;51.462;7.338;2022-12-18T09:01:12;0.80;99.90
6879;DHT22;3478;51.462;7.338;2022-12-18T09:06:15;1.10;99.90
6879;DHT22;3478;51.462;7.338;2022-12-18T09:11:20;1.40;99.90
6879;DHT22;3478;51.462;7.338;2022-12-18T09:16:25;1.70;99.60
6879;DHT22;3478;51.462;7.338;2022-12-18T09:21:30;2.00;98.10
6879;DHT22;3478;51.462;7.338;2022-12-18T09:26:32;2.20;96.40
6879;DHT22;3478;51.462;7.338;2022-12-18T09:31:36;2.30;95.20
6879;DHT22;3478;51.462;7.338;2022-12-18T09:36:38;2.30;95.50
6879;DHT22;3478;51.462;7.338;2022-12-18T09:41:43;2.40;95.30
6879;DHT22;3478;51.462;7.338;2022-12-18T09:46:51;2.50;94.70
6879;DHT22;3478;51.462;7.338;2022-12-18T09:51:59;2.70;94.20
6879;DHT22;3478;51.462;7.338;2022-12-18T09:57:02;2.80;92.90
6879;DHT22;3478;51.462;7.338;2022-12-18T10:02:21;2.70;93.00
6879;DHT22;3478;51.462;7.338;2022-12-18T10:07:27;2.70;92.10
6879;DHT22;3478;51.462;7.338;2022-12-18T10:12:36;2.80;91.90
6879;DHT22;3478;51.462;7.338;2022-12-18T10:17:47;3.00;90.70
6879;DHT22;3478;51.462;7.338;2022-12-18T10:22:57;3.00;90.60
6879;DHT22;3478;51.462;7.338;2022-12-18T10:28:09;3.10;90.50
6879;DHT22;3478;51.462;7.338;2022-12-18T10:33:15;3.20;90.70
6879;DHT22;3478;51.462;7.338;2022-12-18T10:38:22;3.10;91.30
6879;DHT22;3478;51.462;7.338;2022-12-18T10:43:26;3.00;90.30
6879;DHT22;3478;51.462;7.338;2022-12-18T10:48:32;3.10;89.90
6879;DHT22;3478;51.462;7.338;2022-12-18T10:53:36;3.10;91.00
6879;DHT22;3478;51.462;7.338;2022-12-18T10:58:39;3.20;90.80
6879;DHT22;3478;51.462;7.338;2022-12-18T11:03:44;3.30;90.70
6879;DHT22;3478;51.462;7.338;2022-12-18T11:08:59;3.40;90.20
6879;DHT22;3478;51.462;7.338;2022-12-18T11:14:03;3.60;88.30
6879;DHT22;3478;51.462;7.338;2022-12-18T11:19:20;3.80;86.90
6879;DHT22;3478;51.462;7.338;2022-12-18T11:24:28;3.90;86.50
6879;DHT22;3478;51.462;7.338;2022-12-18T11:29:34;4.00;85.50
6879;DHT22;3478;51.462;7.338;2022-12-18T11:34:37;4.10;85.10
6879;DHT22;3478;51.462;7.338;2022-12-18T11:39:44;4.30;84.50
6879;DHT22;3478;51.462;7.338;2022-12-18T11:44:50;4.40;82.50
6879;DHT22;3478;51.462;7.338;2022-12-18T11:49:56;4.40;83.00
6879;DHT22;3478;51.462;7.338;2022-12-18T11:55:09;4.40;83.50
6879;DHT22;3478;51.462;7.338;2022-12-18T12:00:13;4.30;85.10
6879;DHT22;3478;51.462;7.338;2022-12-18T12:05:28;4.30;81.70
6879;DHT22;3478;51.462;7.338;2022-12-18T12:10:42;4.30;79.80
6879;DHT22;3478;51.462;7.338;2022-12-18T12:15:55;4.40;79.40
6879;DHT22;3478;51.462;7.338;2022-12-18T12:21:11;4.50;78.90
6879;DHT22;3478;51.462;7.338;2022-12-18T12:26:21;4.60;78.00
6879;DHT22;3478;51.462;7.338;2022-12-18T12:37:11;4.60;78.20
6879;DHT22;3478;51.462;7.338;2022-12-18T12:42:25;4.50;74.40
6879;DHT22;3478;51.462;7.338;2022-12-18T12:47:47;4.50;71.90
6879;DHT22;3478;51.462;7.338;2022-12-18T12:52:54;4.50;68.50
6879;DHT22;3478;51.462;7.338;2022-12-18T12:58:03;4.50;68.00
6879;DHT22;3478;51.462;7.338;2022-12-18T13:03:12;4.40;68.30
6879;DHT22;3478;51.462;7.338;2022-12-18T13:08:24;4.40;69.00
6879;DHT22;3478;51.462;7.338;2022-12-18T13:13:50;4.40;70.00
6879;DHT22;3478;51.462;7.338;2022-12-18T13:18:53;4.30;69.50
6879;DHT22;3478;51.462;7.338;2022-12-18T13:24:15;4.20;73.20
6879;DHT22;3478;51.462;7.338;2022-12-18T13:29:41;4.20;72.10
6879;DHT22;3478;51.462;7.338;2022-12-18T13:34:43;4.10;73.70
6879;DHT22;3478;51.462;7.338;2022-12-18T13:39:47;4.10;74.80
6879;DHT22;3478;51.462;7.338;2022-12-18T13:44:49;4.00;73.70
6879;DHT22;3478;51.462;7.338;2022-12-18T13:49:51;3.90;76.40
6879;DHT22;3478;51.462;7.338;2022-12-18T13:54:56;3.80;75.50
6879;DHT22;3478;51.462;7.338;2022-12-18T14:00:14;3.60;77.50
6879;DHT22;3478;51.462;7.338;2022-12-18T14:05:22;3.50;79.90
6879;DHT22;3478;51.462;7.338;2022-12-18T14:10:25;3.40;80.40
6879;DHT22;3478;51.462;7.338;2022-12-18T14:15:32;3.40;82.20
6879;DHT22;3478;51.462;7.338;2022-12-18T14:20:34;3.30;83.70
6879;DHT22;3478;51.462;7.338;2022-12-18T14:25:38;3.20;81.80
6879;DHT22;3478;51.462;7.338;2022-12-18T14:30:41;3.20;82.70
6879;DHT22;3478;51.462;7.338;2022-12-18T14:35:53;3.10;84.00
6879;DHT22;3478;51.462;7.338;2022-12-18T14:40:57;2.90;84.70
6879;DHT22;3478;51.462;7.338;2022-12-18T14:46:00;2.90;82.90
6879;DHT22;3478;51.462;7.338;2022-12-18T14:51:05;3.00;83.70
6879;DHT22;3478;51.462;7.338;2022-12-18T14:56:17;2.90;84.90
6879;DHT22;3478;51.462;7.338;2022-12-18T15:01:23;2.90;85.10
6879;DHT22;3478;51.462;7.338;2022-12-18T15:06:33;2.80;87.80
6879;DHT22;3478;51.462;7.338;2022-12-18T15:11:45;2.70;87.30
6879;DHT22;3478;51.462;7.338;2022-12-18T15:16:50;2.80;83.40
6879;DHT22;3478;51.462;7.338;2022-12-18T15:21:53;2.80;82.90
6879;DHT22;3478;51.462;7.338;2022-12-18T15:26:56;2.70;82.00
6879;DHT22;3478;51.462;7.338;2022-12-18T15:32:00;2.70;82.70
6879;DHT22;3478;51.462;7.338;2022-12-18T15:37:02;2.70;83.30
6879;DHT22;3478;51.462;7.338;2022-12-18T15:42:08;2.60;83.10
6879;DHT22;3478;51.462;7.338;2022-12-18T15:47:27;2.50;85.30
6879;DHT22;3478;51.462;7.338;2022-12-18T15:52:39;2.50;84.40
6879;DHT22;3478;51.462;7.338;2022-12-18T15:57:42;2.40;84.10
6879;DHT22;3478;51.462;7.338;2022-12-18T16:02:44;2.30;87.70
6879;DHT22;3478;51.462;7.338;2022-12-18T16:07:46;2.30;87.70
6879;DHT22;3478;51.462;7.338;2022-12-18T16:12:50;2.20;89.30
6879;DHT22;3478;51.462;7.338;2022-12-18T16:17:51;2.10;90.40
6879;DHT22;3478;51.462;7.338;2022-12-18T16:22:53;2.10;91.20
6879;DHT22;3478;51.462;7.338;2022-12-18T16:27:59;2.00;92.20
6879;DHT22;3478;51.462;7.338;2022-12-18T16:33:01;2.00;92.90
6879;DHT22;3478;51.462;7.338;2022-12-18T16:38:03;2.10;93.60
6879;DHT22;3478;51.462;7.338;2022-12-18T16:43:06;2.10;94.60
6879;DHT22;3478;51.462;7.338;2022-12-18T16:48:08;2.00;95.20
6879;DHT22;3478;51.462;7.338;2022-12-18T16:53:10;1.90;96.00
6879;DHT22;3478;51.462;7.338;2022-12-18T16:58:14;1.90;97.10
6879;DHT22;3478;51.462;7.338;2022-12-18T17:03:15;1.90;97.80
6879;DHT22;3478;51.462;7.338;2022-12-18T17:08:17;1.80;99.10
6879;DHT22;3478;51.462;7.338;2022-12-18T17:13:25;1.80;99.90
6879;DHT22;3478;51.462;7.338;2022-12-18T17:18:27;1.70;99.90
6879;DHT22;3478;51.462;7.338;2022-12-18T17:23:29;1.70;99.90
6879;DHT22;3478;51.462;7.338;2022-12-18T17:28:33;1.70;99.90
6879;DHT22;3478;51.462;7.338;2022-12-18T17:33:35;1.60;99.90
6879;DHT22;3478;51.462;7.338;2022-12-18T17:38:38;1.60;99.90
6879;DHT22;3478;51.462;7.338;2022-12-18T17:43:44;1.60;99.90
6879;DHT22;3478;51.462;7.338;2022-12-18T17:48:51;1.60;99.90
6879;DHT22;3478;51.462;7.338;2022-12-18T17:53:53;1.50;99.90
6879;DHT22;3478;51.462;7.338;2022-12-18T17:58:56;1.60;99.90
6879;DHT22;3478;51.462;7.338;2022-12-18T18:03:58;1.50;99.90
6879;DHT22;3478;51.462;7.338;2022-12-18T18:09:01;1.50;99.90
6879;DHT22;3478;51.462;7.338;2022-12-18T18:14:09;1.50;99.90
6879;DHT22;3478;51.462;7.338;2022-12-18T18:19:13;1.50;99.90
6879;DHT22;3478;51.462;7.338;2022-12-18T18:24:17;1.50;99.90
6879;DHT22;3478;51.462;7.338;2022-12-18T18:29:22;1.40;99.90
6879;DHT22;3478;51.462;7.338;2022-12-18T18:34:26;1.30;99.90
6879;DHT22;3478;51.462;7.338;2022-12-18T18:39:28;1.30;99.90
6879;DHT22;3478;51.462;7.338;2022-12-18T18:44:31;1.30;99.90
6879;DHT22;3478;51.462;7.338;2022-12-18T18:49:33;1.30;99.90
6879;DHT22;3478;51.462;7.338;2022-12-18T18:54:35;1.20;99.90
6879;DHT22;3478;51.462;7.338;2022-12-18T18:59:39;1.10;99.90
6879;DHT22;3478;51.462;7.338;2022-12-18T19:04:41;1.10;99.90
6879;DHT22;3478;51.462;7.338;2022-12-18T19:09:43;1.00;99.90
6879;DHT22;3478;51.462;7.338;2022-12-18T19:14:54;1.00;99.90
6879;DHT22;3478;51.462;7.338;2022-12-18T19:19:56;1.00;99.90
6879;DHT22;3478;51.462;7.338;2022-12-18T19:24:58;1.00;99.90
6879;DHT22;3478;51.462;7.338;2022-12-18T19:30:02;1.00;99.90
6879;DHT22;3478;51.462;7.338;2022-12-18T19:35:04;1.00;99.90
6879;DHT22;3478;51.462;7.338;2022-12-18T19:40:07;1.00;99.90
6879;DHT22;3478;51.462;7.338;2022-12-18T19:45:11;1.00;99.90
6879;DHT22;3478;51.462;7.338;2022-12-18T19:50:13;1.10;99.90
6879;DHT22;3478;51.462;7.338;2022-12-18T19:55:15;1.10;99.90
6879;DHT22;3478;51.462;7.338;2022-12-18T20:00:18;1.10;99.90
6879;DHT22;3478;51.462;7.338;2022-12-18T20:05:20;1.20;99.90
6879;DHT22;3478;51.462;7.338;2022-12-18T20:10:25;1.30;99.90
6879;DHT22;3478;51.462;7.338;2022-12-18T20:15:28;1.30;99.90
6879;DHT22;3478;51.462;7.338;2022-12-18T20:20:30;1.30;99.90
6879;DHT22;3478;51.462;7.338;2022-12-18T20:25:32;1.40;99.90
6879;DHT22;3478;51.462;7.338;2022-12-18T20:30:35;1.40;99.90
6879;DHT22;3478;51.462;7.338;2022-12-18T20:35:37;1.50;99.90
6879;DHT22;3478;51.462;7.338;2022-12-18T20:40:39;1.50;99.90
6879;DHT22;3478;51.462;7.338;2022-12-18T20:45:43;1.50;99.90
6879;DHT22;3478;51.462;7.338;2022-12-18T20:50:45;1.50;99.90
6879;DHT22;3478;51.462;7.338;2022-12-18T20:55:57;1.50;99.90
6879;DHT22;3478;51.462;7.338;2022-12-18T21:01:05;1.60;99.90
6879;DHT22;3478;51.462;7.338;2022-12-18T21:06:08;1.60;99.90
6879;DHT22;3478;51.462;7.338;2022-12-18T21:11:12;1.60;99.90
6879;DHT22;3478;51.462;7.338;2022-12-18T21:16:37;1.60;99.90
6879;DHT22;3478;51.462;7.338;2022-12-18T21:21:40;1.50;99.90
6879;DHT22;3478;51.462;7.338;2022-12-18T21:26:45;1.50;99.90
6879;DHT22;3478;51.462;7.338;2022-12-18T21:31:49;1.50;99.90
6879;DHT22;3478;51.462;7.338;2022-12-18T21:36:52;1.50;99.90
6879;DHT22;3478;51.462;7.338;2022-12-18T21:41:55;1.50;99.90
6879;DHT22;3478;51.462;7.338;2022-12-18T21:47:16;1.40;99.90
6879;DHT22;3478;51.462;7.338;2022-12-18T21:52:18;1.50;99.90
6879;DHT22;3478;51.462;7.338;2022-12-18T21:57:20;1.50;99.90
6879;DHT22;3478;51.462;7.338;2022-12-18T22:02:24;1.60;99.90
6879;DHT22;3478;51.462;7.338;2022-12-18T22:07:26;1.60;99.90
6879;DHT22;3478;51.462;7.338;2022-12-18T22:12:28;1.70;99.90
6879;DHT22;3478;51.462;7.338;2022-12-18T22:17:38;1.70;99.90
6879;DHT22;3478;51.462;7.338;2022-12-18T22:22:40;1.70;99.90
6879;DHT22;3478;51.462;7.338;2022-12-18T22:27:43;1.70;99.90
6879;DHT22;3478;51.462;7.338;2022-12-18T22:33:06;1.60;99.90
6879;DHT22;3478;51.462;7.338;2022-12-18T22:38:08;1.60;99.90
6879;DHT22;3478;51.462;7.338;2022-12-18T22:43:11;1.60;99.90
6879;DHT22;3478;51.462;7.338;2022-12-18T22:48:14;1.70;99.90
6879;DHT22;3478;51.462;7.338;2022-12-18T22:53:16;1.60;99.90
6879;DHT22;3478;51.462;7.338;2022-12-18T22:58:18;1.70;99.90
6879;DHT22;3478;51.462;7.338;2022-12-18T23:03:21;1.70;99.90
6879;DHT22;3478;51.462;7.338;2022-12-18T23:08:23;1.70;99.90
6879;DHT22;3478;51.462;7.338;2022-12-18T23:13:26;1.60;99.90
6879;DHT22;3478;51.462;7.338;2022-12-18T23:18:30;1.70;99.90
6879;DHT22;3478;51.462;7.338;2022-12-18T23:23:33;1.70;99.90
6879;DHT22;3478;51.462;7.338;2022-12-18T23:28:36;1.70;99.90
6879;DHT22;3478;51.462;7.338;2022-12-18T23:33:40;1.80;99.90
6879;DHT22;3478;51.462;7.338;2022-12-18T23:38:46;1.80;99.90
6879;DHT22;3478;51.462;7.338;2022-12-18T23:43:48;1.70;99.90
6879;DHT22;3478;51.462;7.338;2022-12-18T23:48:52;1.80;99.90
6879;DHT22;3478;51.462;7.338;2022-12-18T23:53:56;1.80;99.90
6879;DHT22;3478;51.462;7.338;2022-12-18T23:58:58;1.80;99.90
